Terminal Aerodrome Forecast
Issued by NWS

Home | Current Version | Previous Version | Text Only | Print | Product List | Glossary On
Versions: 1 2 3 4 5 6 7 8 9 10 11 12 13 14 15 16 17 18 19 20 21
000
FTPA31 PHFO 240349 AAC
TAFMDY
TAF AMD
PMDY 240349Z 2404/2424 27016KT P6SM VCSH SCT007 BKN030
      TEMPO 2404/2407 4SM RA BR BKN020
     FM241200 29012KT P6SM VCSH SCT010 BKN035=

USA.gov is the U.S. government's official web portal to all federal, state and local government web resources and services.